sensor_id;sensor_type;location;lat;lon;timestamp;P1;durP1;ratioP1;P2;durP2;ratioP2
49153;SDS011;49455;52.252;9.124;2022-11-15T08:08:53;10.68;;;6.22;;
49153;SDS011;49455;52.252;9.124;2022-11-15T08:14:12;9.80;;;7.25;;
49153;SDS011;49455;52.252;9.124;2022-11-15T08:19:31;12.88;;;6.53;;
49153;SDS011;49455;52.252;9.124;2022-11-15T08:24:50;9.68;;;6.60;;
49153;SDS011;49455;52.252;9.124;2022-11-15T08:30:09;7.90;;;5.88;;
49153;SDS011;49455;52.252;9.124;2022-11-15T08:35:31;13.65;;;6.60;;
49153;SDS011;49455;52.252;9.124;2022-11-15T08:40:51;9.23;;;5.63;;
49153;SDS011;49455;52.252;9.124;2022-11-15T08:46:12;7.85;;;5.75;;
49153;SDS011;49455;52.252;9.124;2022-11-15T08:51:32;6.78;;;5.10;;
49153;SDS011;49455;52.252;9.124;2022-11-15T08:56:51;8.18;;;5.05;;
49153;SDS011;49455;52.252;9.124;2022-11-15T09:02:11;9.07;;;5.03;;
49153;SDS011;49455;52.252;9.124;2022-11-15T09:07:32;7.85;;;5.68;;
49153;SDS011;49455;52.252;9.124;2022-11-15T09:12:50;9.13;;;5.78;;
49153;SDS011;49455;52.252;9.124;2022-11-15T09:18:09;9.40;;;5.68;;
49153;SDS011;49455;52.252;9.124;2022-11-15T09:23:28;8.20;;;5.50;;
49153;SDS011;49455;52.252;9.124;2022-11-15T09:28:47;6.60;;;5.03;;
49153;SDS011;49455;52.252;9.124;2022-11-15T09:34:06;7.25;;;4.93;;
49153;SDS011;49455;52.252;9.124;2022-11-15T09:39:25;6.85;;;4.72;;
49153;SDS011;49455;52.252;9.124;2022-11-15T09:55:42;6.50;;;4.78;;
49153;SDS011;49455;52.252;9.124;2022-11-15T10:00:54;4.35;;;3.83;;
49153;SDS011;49455;52.252;9.124;2022-11-15T10:05:59;5.40;;;3.90;;
49153;SDS011;49455;52.252;9.124;2022-11-15T10:11:03;4.90;;;3.97;;
49153;SDS011;49455;52.252;9.124;2022-11-15T10:21:21;4.65;;;3.67;;
49153;SDS011;49455;52.252;9.124;2022-11-15T10:26:28;5.00;;;3.92;;
49153;SDS011;49455;52.252;9.124;2022-11-15T10:31:28;4.85;;;3.28;;
49153;SDS011;49455;52.252;9.124;2022-11-15T10:36:29;3.85;;;2.90;;
49153;SDS011;49455;52.252;9.124;2022-11-15T10:41:31;3.50;;;3.08;;
49153;SDS011;49455;52.252;9.124;2022-11-15T10:46:33;4.68;;;2.88;;
49153;SDS011;49455;52.252;9.124;2022-11-15T10:56:40;5.20;;;3.00;;
49153;SDS011;49455;52.252;9.124;2022-11-15T11:01:45;3.10;;;2.63;;
49153;SDS011;49455;52.252;9.124;2022-11-15T11:06:54;3.92;;;2.90;;
49153;SDS011;49455;52.252;9.124;2022-11-15T11:11:58;4.03;;;2.63;;
49153;SDS011;49455;52.252;9.124;2022-11-15T11:27:43;4.80;;;2.90;;
49153;SDS011;49455;52.252;9.124;2022-11-15T11:32:56;5.05;;;2.90;;
49153;SDS011;49455;52.252;9.124;2022-11-15T11:38:10;4.32;;;3.17;;
49153;SDS011;49455;52.252;9.124;2022-11-15T11:49:16;5.20;;;2.70;;
49153;SDS011;49455;52.252;9.124;2022-11-15T11:59:39;4.18;;;2.72;;
49153;SDS011;49455;52.252;9.124;2022-11-15T12:15:18;4.22;;;3.13;;
49153;SDS011;49455;52.252;9.124;2022-11-15T12:20:34;3.88;;;2.80;;
49153;SDS011;49455;52.252;9.124;2022-11-15T12:25:53;4.82;;;3.60;;
49153;SDS011;49455;52.252;9.124;2022-11-15T12:31:05;5.28;;;3.25;;
49153;SDS011;49455;52.252;9.124;2022-11-15T12:36:30;5.65;;;3.55;;
49153;SDS011;49455;52.252;9.124;2022-11-15T12:41:41;5.38;;;3.50;;
49153;SDS011;49455;52.252;9.124;2022-11-15T13:02:15;5.22;;;3.17;;
49153;SDS011;49455;52.252;9.124;2022-11-15T13:22:53;6.30;;;2.80;;
49153;SDS011;49455;52.252;9.124;2022-11-15T13:33:41;5.80;;;3.25;;
49153;SDS011;49455;52.252;9.124;2022-11-15T13:38:43;3.67;;;3.17;;
49153;SDS011;49455;52.252;9.124;2022-11-15T13:43:43;4.15;;;2.92;;
49153;SDS011;49455;52.252;9.124;2022-11-15T13:48:45;4.78;;;2.97;;
49153;SDS011;49455;52.252;9.124;2022-11-15T13:53:50;4.82;;;2.70;;
49153;SDS011;49455;52.252;9.124;2022-11-15T13:58:56;4.35;;;3.17;;
49153;SDS011;49455;52.252;9.124;2022-11-15T14:03:58;4.95;;;2.60;;
49153;SDS011;49455;52.252;9.124;2022-11-15T14:19:22;3.77;;;2.47;;
49153;SDS011;49455;52.252;9.124;2022-11-15T14:24:30;3.10;;;2.60;;
49153;SDS011;49455;52.252;9.124;2022-11-15T14:29:31;4.53;;;2.80;;
49153;SDS011;49455;52.252;9.124;2022-11-15T14:34:32;5.63;;;2.78;;
49153;SDS011;49455;52.252;9.124;2022-11-15T14:39:32;5.05;;;2.97;;
49153;SDS011;49455;52.252;9.124;2022-11-15T14:44:33;4.20;;;3.05;;
49153;SDS011;49455;52.252;9.124;2022-11-15T14:49:33;6.07;;;3.20;;
49153;SDS011;49455;52.252;9.124;2022-11-15T14:54:33;5.05;;;3.40;;
49153;SDS011;49455;52.252;9.124;2022-11-15T14:59:34;6.05;;;3.47;;
49153;SDS011;49455;52.252;9.124;2022-11-15T15:04:34;4.57;;;3.55;;
49153;SDS011;49455;52.252;9.124;2022-11-15T15:09:35;5.10;;;3.05;;
49153;SDS011;49455;52.252;9.124;2022-11-15T15:14:35;5.28;;;3.38;;
49153;SDS011;49455;52.252;9.124;2022-11-15T15:19:36;5.03;;;3.65;;
49153;SDS011;49455;52.252;9.124;2022-11-15T15:24:36;4.53;;;3.42;;
49153;SDS011;49455;52.252;9.124;2022-11-15T15:29:37;5.78;;;3.42;;
49153;SDS011;49455;52.252;9.124;2022-11-15T15:34:37;4.93;;;3.45;;
49153;SDS011;49455;52.252;9.124;2022-11-15T15:39:38;5.22;;;3.20;;
49153;SDS011;49455;52.252;9.124;2022-11-15T15:44:38;6.38;;;3.30;;
49153;SDS011;49455;52.252;9.124;2022-11-15T15:49:39;7.22;;;3.30;;
49153;SDS011;49455;52.252;9.124;2022-11-15T15:54:40;6.20;;;3.58;;
49153;SDS011;49455;52.252;9.124;2022-11-15T15:59:40;5.88;;;3.47;;
49153;SDS011;49455;52.252;9.124;2022-11-15T16:04:41;7.65;;;4.15;;
49153;SDS011;49455;52.252;9.124;2022-11-15T16:09:41;4.15;;;3.25;;
49153;SDS011;49455;52.252;9.124;2022-11-15T16:14:45;6.55;;;3.25;;
49153;SDS011;49455;52.252;9.124;2022-11-15T16:19:45;6.10;;;4.07;;
49153;SDS011;49455;52.252;9.124;2022-11-15T16:24:45;6.50;;;3.70;;
49153;SDS011;49455;52.252;9.124;2022-11-15T16:29:46;6.28;;;3.05;;
49153;SDS011;49455;52.252;9.124;2022-11-15T16:34:47;6.28;;;3.88;;
49153;SDS011;49455;52.252;9.124;2022-11-15T16:39:47;7.47;;;4.03;;
49153;SDS011;49455;52.252;9.124;2022-11-15T16:44:48;6.95;;;4.25;;
49153;SDS011;49455;52.252;9.124;2022-11-15T16:49:48;5.72;;;3.97;;
49153;SDS011;49455;52.252;9.124;2022-11-15T16:54:49;6.53;;;4.10;;
49153;SDS011;49455;52.252;9.124;2022-11-15T16:59:49;8.57;;;4.30;;
49153;SDS011;49455;52.252;9.124;2022-11-15T17:04:49;6.22;;;4.38;;
49153;SDS011;49455;52.252;9.124;2022-11-15T17:09:50;7.60;;;4.80;;
49153;SDS011;49455;52.252;9.124;2022-11-15T17:14:50;10.15;;;5.10;;
49153;SDS011;49455;52.252;9.124;2022-11-15T17:19:51;11.00;;;5.47;;
49153;SDS011;49455;52.252;9.124;2022-11-15T17:24:52;8.63;;;5.00;;
49153;SDS011;49455;52.252;9.124;2022-11-15T17:29:52;7.93;;;5.30;;
49153;SDS011;49455;52.252;9.124;2022-11-15T17:34:53;8.75;;;4.88;;
49153;SDS011;49455;52.252;9.124;2022-11-15T17:39:53;8.93;;;5.88;;
49153;SDS011;49455;52.252;9.124;2022-11-15T17:44:54;10.20;;;4.85;;
49153;SDS011;49455;52.252;9.124;2022-11-15T17:49:54;9.02;;;5.40;;
49153;SDS011;49455;52.252;9.124;2022-11-15T17:54:54;9.48;;;5.03;;
49153;SDS011;49455;52.252;9.124;2022-11-15T17:59:55;7.38;;;4.65;;
49153;SDS011;49455;52.252;9.124;2022-11-15T18:04:55;14.43;;;5.10;;
49153;SDS011;49455;52.252;9.124;2022-11-15T18:09:56;8.68;;;5.85;;
49153;SDS011;49455;52.252;9.124;2022-11-15T18:14:56;7.03;;;5.13;;
49153;SDS011;49455;52.252;9.124;2022-11-15T18:19:57;7.80;;;5.35;;
49153;SDS011;49455;52.252;9.124;2022-11-15T18:24:57;8.32;;;5.00;;
49153;SDS011;49455;52.252;9.124;2022-11-15T18:29:58;5.13;;;4.60;;
49153;SDS011;49455;52.252;9.124;2022-11-15T18:34:58;7.40;;;4.57;;
49153;SDS011;49455;52.252;9.124;2022-11-15T18:39:58;7.78;;;5.20;;
49153;SDS011;49455;52.252;9.124;2022-11-15T18:44:59;10.07;;;4.78;;
49153;SDS011;49455;52.252;9.124;2022-11-15T18:49:59;9.75;;;5.30;;
49153;SDS011;49455;52.252;9.124;2022-11-15T18:55:00;7.72;;;4.85;;
49153;SDS011;49455;52.252;9.124;2022-11-15T19:00:00;6.93;;;4.30;;
49153;SDS011;49455;52.252;9.124;2022-11-15T19:05:01;7.68;;;4.57;;
49153;SDS011;49455;52.252;9.124;2022-11-15T19:10:01;8.38;;;4.32;;
49153;SDS011;49455;52.252;9.124;2022-11-15T19:15:02;8.65;;;4.35;;
49153;SDS011;49455;52.252;9.124;2022-11-15T19:20:03;7.40;;;4.18;;
49153;SDS011;49455;52.252;9.124;2022-11-15T19:25:04;6.63;;;3.88;;
49153;SDS011;49455;52.252;9.124;2022-11-15T19:30:05;6.40;;;4.07;;
49153;SDS011;49455;52.252;9.124;2022-11-15T19:35:06;6.47;;;4.13;;
49153;SDS011;49455;52.252;9.124;2022-11-15T19:40:07;6.65;;;3.65;;
49153;SDS011;49455;52.252;9.124;2022-11-15T19:45:08;6.50;;;4.53;;
49153;SDS011;49455;52.252;9.124;2022-11-15T19:50:09;5.97;;;3.83;;
49153;SDS011;49455;52.252;9.124;2022-11-15T19:55:09;7.25;;;3.92;;
49153;SDS011;49455;52.252;9.124;2022-11-15T20:00:10;8.02;;;3.53;;
49153;SDS011;49455;52.252;9.124;2022-11-15T20:05:10;7.25;;;3.45;;
49153;SDS011;49455;52.252;9.124;2022-11-15T20:10:11;4.22;;;3.40;;
49153;SDS011;49455;52.252;9.124;2022-11-15T20:15:11;5.30;;;3.80;;
49153;SDS011;49455;52.252;9.124;2022-11-15T20:20:12;5.50;;;3.55;;
49153;SDS011;49455;52.252;9.124;2022-11-15T20:25:12;5.05;;;3.65;;
49153;SDS011;49455;52.252;9.124;2022-11-15T20:30:13;5.63;;;3.47;;
